KMCX

Details ICAO KMCX
Name WHITE CO
Region United States
Timezone America/Indiana/Indianapolis (UTC-4.0)
Plans Departing 0
Arriving 1
Stats Elevation 676 ft / 206 m (AMSL)
Location 40.708838° -86.766743°
Runways 1
Magnetic Variation 4.448° W
Sunrise 2018-05-21 10:26:15 UTC / 2018-05-21 06:26:15 Local
Sunset 2018-05-22 01:03:57 UTC / 2018-05-21 21:03:57 Local
Advertisement - Login to hide

Runways

ID Width Length Bearing (true) Bearing (mag) Surface Threshold Offset Overrun Length
18 60 ft / 18 m 4,008 ft / 1,222 m 178.76° 183.21° Asphalt 0 ft / 0 m 0 ft / 0 m
36 60 ft / 18 m 4,008 ft / 1,222 m 358.76° 3.21° Asphalt 0 ft / 0 m 0 ft / 0 m

Map

Weather


0- 5 10 15 20 25 30 35+ Temperature / ° C

Clouds and Precipitation
Forecast for 2018-05-22 00:00 UTC. Updated 6 hours ago

Ground ~20,000 ft ~40,000 ft Winds

METAR

KMCX 220455Z AUTO 00000KT 1/4SM FG BKN002 17/17 A2999 RMK AO2 T01740166

TAF

Not found

Frequencies

Unicom 122.80 MHz CTAF/UNICOM
Warning: Do not use this data for real-world aviation or navigation. No guarantee of current accuracy is given.